sensor_id;sensor_type;location;lat;lon;timestamp;P1;durP1;ratioP1;P2;durP2;ratioP2
62796;SDS011;48839;48.546;-4.178;2022-07-29T00:02:01;13.68;;;8.68;;
62796;SDS011;48839;48.546;-4.178;2022-07-29T00:04:27;15.93;;;9.23;;
62796;SDS011;48839;48.546;-4.178;2022-07-29T00:06:53;17.55;;;8.15;;
62796;SDS011;48839;48.546;-4.178;2022-07-29T00:09:18;13.88;;;9.07;;
62796;SDS011;48839;48.546;-4.178;2022-07-29T00:11:44;12.93;;;8.18;;
62796;SDS011;48839;48.546;-4.178;2022-07-29T00:14:10;15.10;;;8.50;;
62796;SDS011;48839;48.546;-4.178;2022-07-29T00:16:35;12.65;;;8.02;;
62796;SDS011;48839;48.546;-4.178;2022-07-29T00:19:01;16.60;;;8.40;;
62796;SDS011;48839;48.546;-4.178;2022-07-29T00:21:28;12.10;;;7.80;;
62796;SDS011;48839;48.546;-4.178;2022-07-29T00:23:53;12.68;;;7.65;;
62796;SDS011;48839;48.546;-4.178;2022-07-29T00:26:19;14.20;;;8.52;;
62796;SDS011;48839;48.546;-4.178;2022-07-29T00:28:45;12.73;;;7.55;;
62796;SDS011;48839;48.546;-4.178;2022-07-29T00:31:10;14.00;;;7.80;;
62796;SDS011;48839;48.546;-4.178;2022-07-29T00:33:36;11.52;;;7.93;;
62796;SDS011;48839;48.546;-4.178;2022-07-29T00:36:02;13.55;;;7.45;;
62796;SDS011;48839;48.546;-4.178;2022-07-29T00:38:28;16.30;;;8.77;;
62796;SDS011;48839;48.546;-4.178;2022-07-29T00:40:53;11.60;;;7.88;;
62796;SDS011;48839;48.546;-4.178;2022-07-29T00:43:19;13.88;;;7.57;;
62796;SDS011;48839;48.546;-4.178;2022-07-29T00:45:45;11.35;;;7.85;;
62796;SDS011;48839;48.546;-4.178;2022-07-29T00:48:10;11.88;;;8.73;;
62796;SDS011;48839;48.546;-4.178;2022-07-29T00:50:36;13.07;;;7.70;;
62796;SDS011;48839;48.546;-4.178;2022-07-29T00:53:02;14.15;;;7.80;;
62796;SDS011;48839;48.546;-4.178;2022-07-29T00:55:29;11.80;;;7.75;;
62796;SDS011;48839;48.546;-4.178;2022-07-29T00:57:55;13.70;;;7.15;;
62796;SDS011;48839;48.546;-4.178;2022-07-29T01:00:23;14.93;;;7.90;;
62796;SDS011;48839;48.546;-4.178;2022-07-29T01:02:50;14.52;;;7.88;;
62796;SDS011;48839;48.546;-4.178;2022-07-29T01:05:17;11.80;;;8.00;;
62796;SDS011;48839;48.546;-4.178;2022-07-29T01:07:44;12.80;;;7.35;;
62796;SDS011;48839;48.546;-4.178;2022-07-29T01:10:12;13.43;;;7.90;;
62796;SDS011;48839;48.546;-4.178;2022-07-29T01:12:39;10.85;;;7.10;;
62796;SDS011;48839;48.546;-4.178;2022-07-29T01:15:06;15.63;;;7.70;;
62796;SDS011;48839;48.546;-4.178;2022-07-29T01:23:21;14.88;;;7.65;;
62796;SDS011;48839;48.546;-4.178;2022-07-29T01:31:28;13.90;;;7.40;;
62796;SDS011;48839;48.546;-4.178;2022-07-29T01:34:03;13.75;;;7.53;;
62796;SDS011;48839;48.546;-4.178;2022-07-29T01:36:33;13.35;;;7.95;;
62796;SDS011;48839;48.546;-4.178;2022-07-29T01:39:05;12.93;;;7.50;;
62796;SDS011;48839;48.546;-4.178;2022-07-29T01:41:46;12.73;;;7.25;;
62796;SDS011;48839;48.546;-4.178;2022-07-29T01:44:20;14.35;;;7.50;;
62796;SDS011;48839;48.546;-4.178;2022-07-29T01:46:56;9.30;;;6.75;;
62796;SDS011;48839;48.546;-4.178;2022-07-29T01:51:54;11.45;;;7.13;;
62796;SDS011;48839;48.546;-4.178;2022-07-29T01:57:08;10.48;;;7.28;;
62796;SDS011;48839;48.546;-4.178;2022-07-29T01:59:37;13.23;;;7.30;;
62796;SDS011;48839;48.546;-4.178;2022-07-29T02:02:05;10.90;;;7.50;;
62796;SDS011;48839;48.546;-4.178;2022-07-29T02:04:33;15.02;;;7.90;;
62796;SDS011;48839;48.546;-4.178;2022-07-29T02:07:02;15.07;;;7.45;;
62796;SDS011;48839;48.546;-4.178;2022-07-29T02:09:31;11.52;;;7.70;;
62796;SDS011;48839;48.546;-4.178;2022-07-29T02:12:00;16.38;;;8.88;;
62796;SDS011;48839;48.546;-4.178;2022-07-29T02:14:28;13.07;;;7.50;;
62796;SDS011;48839;48.546;-4.178;2022-07-29T02:16:58;13.65;;;7.32;;
62796;SDS011;48839;48.546;-4.178;2022-07-29T02:19:26;12.85;;;8.40;;
62796;SDS011;48839;48.546;-4.178;2022-07-29T02:21:54;15.45;;;8.48;;
62796;SDS011;48839;48.546;-4.178;2022-07-29T02:24:22;17.42;;;8.65;;
62796;SDS011;48839;48.546;-4.178;2022-07-29T02:26:50;13.10;;;8.75;;
62796;SDS011;48839;48.546;-4.178;2022-07-29T02:29:18;20.13;;;9.68;;
62796;SDS011;48839;48.546;-4.178;2022-07-29T02:31:50;15.75;;;9.25;;
62796;SDS011;48839;48.546;-4.178;2022-07-29T02:34:18;14.30;;;9.05;;
62796;SDS011;48839;48.546;-4.178;2022-07-29T02:36:46;13.60;;;8.80;;
62796;SDS011;48839;48.546;-4.178;2022-07-29T02:39:13;13.65;;;9.30;;
62796;SDS011;48839;48.546;-4.178;2022-07-29T02:44:12;17.45;;;10.25;;
62796;SDS011;48839;48.546;-4.178;2022-07-29T02:46:50;16.13;;;9.10;;
62796;SDS011;48839;48.546;-4.178;2022-07-29T02:52:18;18.65;;;10.18;;
62796;SDS011;48839;48.546;-4.178;2022-07-29T02:57:36;21.85;;;10.55;;
62796;SDS011;48839;48.546;-4.178;2022-07-29T03:00:08;17.30;;;10.35;;
62796;SDS011;48839;48.546;-4.178;2022-07-29T03:02:36;13.90;;;10.05;;
62796;SDS011;48839;48.546;-4.178;2022-07-29T03:05:05;15.30;;;10.35;;
62796;SDS011;48839;48.546;-4.178;2022-07-29T03:07:33;16.95;;;10.98;;
62796;SDS011;48839;48.546;-4.178;2022-07-29T03:10:00;19.67;;;10.98;;
62796;SDS011;48839;48.546;-4.178;2022-07-29T03:12:26;16.98;;;10.18;;
62796;SDS011;48839;48.546;-4.178;2022-07-29T03:14:54;18.00;;;10.73;;
62796;SDS011;48839;48.546;-4.178;2022-07-29T03:17:21;15.77;;;10.63;;
62796;SDS011;48839;48.546;-4.178;2022-07-29T03:19:48;18.38;;;10.57;;
62796;SDS011;48839;48.546;-4.178;2022-07-29T03:22:14;19.17;;;10.90;;
62796;SDS011;48839;48.546;-4.178;2022-07-29T03:24:40;19.13;;;11.43;;
62796;SDS011;48839;48.546;-4.178;2022-07-29T03:27:05;17.73;;;11.13;;
62796;SDS011;48839;48.546;-4.178;2022-07-29T03:29:31;14.45;;;10.70;;
62796;SDS011;48839;48.546;-4.178;2022-07-29T03:31:57;19.48;;;11.57;;
62796;SDS011;48839;48.546;-4.178;2022-07-29T03:34:23;23.00;;;11.35;;
62796;SDS011;48839;48.546;-4.178;2022-07-29T03:36:49;20.58;;;11.07;;
62796;SDS011;48839;48.546;-4.178;2022-07-29T03:39:17;21.75;;;11.30;;
62796;SDS011;48839;48.546;-4.178;2022-07-29T03:41:47;24.25;;;12.15;;
62796;SDS011;48839;48.546;-4.178;2022-07-29T03:44:16;20.73;;;11.43;;
62796;SDS011;48839;48.546;-4.178;2022-07-29T03:46:43;23.13;;;11.80;;
62796;SDS011;48839;48.546;-4.178;2022-07-29T03:49:09;20.58;;;11.50;;
62796;SDS011;48839;48.546;-4.178;2022-07-29T03:51:37;21.25;;;12.32;;
62796;SDS011;48839;48.546;-4.178;2022-07-29T03:54:03;20.73;;;12.32;;
62796;SDS011;48839;48.546;-4.178;2022-07-29T03:56:30;20.85;;;12.65;;
62796;SDS011;48839;48.546;-4.178;2022-07-29T03:58:57;24.58;;;12.68;;
62796;SDS011;48839;48.546;-4.178;2022-07-29T04:01:24;25.17;;;12.65;;
62796;SDS011;48839;48.546;-4.178;2022-07-29T04:03:51;26.65;;;13.27;;
62796;SDS011;48839;48.546;-4.178;2022-07-29T04:06:17;28.35;;;13.40;;
62796;SDS011;48839;48.546;-4.178;2022-07-29T04:08:42;25.65;;;13.48;;
62796;SDS011;48839;48.546;-4.178;2022-07-29T04:11:08;23.10;;;13.32;;
62796;SDS011;48839;48.546;-4.178;2022-07-29T04:13:34;24.13;;;12.88;;
62796;SDS011;48839;48.546;-4.178;2022-07-29T04:16:00;24.02;;;13.52;;
62796;SDS011;48839;48.546;-4.178;2022-07-29T04:18:26;22.23;;;12.85;;
62796;SDS011;48839;48.546;-4.178;2022-07-29T04:20:51;24.92;;;14.63;;
62796;SDS011;48839;48.546;-4.178;2022-07-29T04:23:17;24.77;;;13.32;;
62796;SDS011;48839;48.546;-4.178;2022-07-29T04:25:43;27.48;;;14.38;;
62796;SDS011;48839;48.546;-4.178;2022-07-29T04:28:09;23.85;;;13.45;;
62796;SDS011;48839;48.546;-4.178;2022-07-29T04:30:36;24.90;;;13.55;;
62796;SDS011;48839;48.546;-4.178;2022-07-29T04:33:04;17.95;;;11.85;;
62796;SDS011;48839;48.546;-4.178;2022-07-29T04:35:35;22.83;;;14.25;;
62796;SDS011;48839;48.546;-4.178;2022-07-29T04:38:02;26.75;;;13.88;;
62796;SDS011;48839;48.546;-4.178;2022-07-29T04:40:29;24.10;;;12.98;;
62796;SDS011;48839;48.546;-4.178;2022-07-29T04:42:55;25.40;;;13.50;;
62796;SDS011;48839;48.546;-4.178;2022-07-29T04:45:21;21.17;;;13.90;;
62796;SDS011;48839;48.546;-4.178;2022-07-29T04:47:47;22.30;;;13.73;;
62796;SDS011;48839;48.546;-4.178;2022-07-29T04:50:12;21.40;;;13.20;;
62796;SDS011;48839;48.546;-4.178;2022-07-29T04:52:38;23.90;;;13.60;;
62796;SDS011;48839;48.546;-4.178;2022-07-29T04:55:04;30.20;;;13.98;;
62796;SDS011;48839;48.546;-4.178;2022-07-29T04:57:30;23.40;;;12.98;;
62796;SDS011;48839;48.546;-4.178;2022-07-29T04:59:56;19.13;;;12.63;;
62796;SDS011;48839;48.546;-4.178;2022-07-29T05:02:22;23.50;;;13.25;;
62796;SDS011;48839;48.546;-4.178;2022-07-29T05:04:48;24.95;;;14.43;;
62796;SDS011;48839;48.546;-4.178;2022-07-29T05:07:13;23.95;;;13.25;;
62796;SDS011;48839;48.546;-4.178;2022-07-29T05:09:39;20.77;;;13.23;;
62796;SDS011;48839;48.546;-4.178;2022-07-29T05:12:05;22.75;;;14.00;;
62796;SDS011;48839;48.546;-4.178;2022-07-29T05:14:31;22.17;;;13.25;;
62796;SDS011;48839;48.546;-4.178;2022-07-29T05:16:57;27.02;;;14.18;;
62796;SDS011;48839;48.546;-4.178;2022-07-29T05:19:23;27.50;;;14.05;;
62796;SDS011;48839;48.546;-4.178;2022-07-29T05:21:48;21.27;;;13.20;;
62796;SDS011;48839;48.546;-4.178;2022-07-29T05:24:14;56.63;;;14.05;;
62796;SDS011;48839;48.546;-4.178;2022-07-29T05:26:41;21.13;;;12.75;;
62796;SDS011;48839;48.546;-4.178;2022-07-29T05:29:07;23.30;;;13.80;;
62796;SDS011;48839;48.546;-4.178;2022-07-29T05:31:33;27.52;;;15.00;;
62796;SDS011;48839;48.546;-4.178;2022-07-29T05:33:59;25.35;;;14.25;;
62796;SDS011;48839;48.546;-4.178;2022-07-29T05:36:25;23.85;;;14.68;;
62796;SDS011;48839;48.546;-4.178;2022-07-29T05:38:51;20.00;;;13.10;;
62796;SDS011;48839;48.546;-4.178;2022-07-29T05:41:17;16.27;;;11.18;;
62796;SDS011;48839;48.546;-4.178;2022-07-29T05:43:43;15.07;;;10.43;;
62796;SDS011;48839;48.546;-4.178;2022-07-29T05:46:09;17.13;;;10.25;;
62796;SDS011;48839;48.546;-4.178;2022-07-29T05:48:34;14.57;;;10.07;;
62796;SDS011;48839;48.546;-4.178;2022-07-29T05:51:00;20.08;;;11.02;;
62796;SDS011;48839;48.546;-4.178;2022-07-29T05:53:26;20.20;;;12.18;;
62796;SDS011;48839;48.546;-4.178;2022-07-29T05:55:52;18.23;;;12.02;;
62796;SDS011;48839;48.546;-4.178;2022-07-29T05:58:18;20.55;;;10.63;;
62796;SDS011;48839;48.546;-4.178;2022-07-29T06:00:43;11.98;;;8.38;;
62796;SDS011;48839;48.546;-4.178;2022-07-29T06:03:09;11.02;;;8.80;;
62796;SDS011;48839;48.546;-4.178;2022-07-29T06:05:35;13.15;;;7.70;;
62796;SDS011;48839;48.546;-4.178;2022-07-29T06:08:00;11.75;;;8.13;;
62796;SDS011;48839;48.546;-4.178;2022-07-29T06:10:26;11.43;;;7.85;;
62796;SDS011;48839;48.546;-4.178;2022-07-29T06:12:52;10.90;;;7.80;;
62796;SDS011;48839;48.546;-4.178;2022-07-29T06:15:17;15.10;;;8.80;;
62796;SDS011;48839;48.546;-4.178;2022-07-29T06:17:43;12.20;;;7.72;;
62796;SDS011;48839;48.546;-4.178;2022-07-29T06:20:09;11.82;;;8.05;;
62796;SDS011;48839;48.546;-4.178;2022-07-29T06:22:35;13.70;;;7.75;;
62796;SDS011;48839;48.546;-4.178;2022-07-29T06:25:01;16.02;;;8.02;;
62796;SDS011;48839;48.546;-4.178;2022-07-29T06:27:27;14.52;;;8.18;;
62796;SDS011;48839;48.546;-4.178;2022-07-29T06:29:53;10.95;;;7.40;;
62796;SDS011;48839;48.546;-4.178;2022-07-29T06:32:19;10.88;;;7.65;;
62796;SDS011;48839;48.546;-4.178;2022-07-29T06:34:44;11.32;;;7.20;;
62796;SDS011;48839;48.546;-4.178;2022-07-29T06:37:10;9.35;;;6.95;;
62796;SDS011;48839;48.546;-4.178;2022-07-29T06:39:36;12.90;;;7.57;;
62796;SDS011;48839;48.546;-4.178;2022-07-29T06:42:02;11.50;;;7.30;;
62796;SDS011;48839;48.546;-4.178;2022-07-29T06:44:29;10.50;;;7.20;;
62796;SDS011;48839;48.546;-4.178;2022-07-29T06:46:55;10.63;;;8.07;;
62796;SDS011;48839;48.546;-4.178;2022-07-29T06:49:21;14.75;;;7.93;;
62796;SDS011;48839;48.546;-4.178;2022-07-29T06:51:48;12.88;;;8.82;;
62796;SDS011;48839;48.546;-4.178;2022-07-29T06:54:14;9.98;;;7.28;;
62796;SDS011;48839;48.546;-4.178;2022-07-29T06:56:39;12.55;;;8.43;;
62796;SDS011;48839;48.546;-4.178;2022-07-29T06:59:10;11.82;;;8.05;;
62796;SDS011;48839;48.546;-4.178;2022-07-29T07:01:37;10.40;;;8.00;;
62796;SDS011;48839;48.546;-4.178;2022-07-29T07:04:04;12.60;;;7.75;;
62796;SDS011;48839;48.546;-4.178;2022-07-29T07:06:29;9.05;;;7.18;;
62796;SDS011;48839;48.546;-4.178;2022-07-29T07:08:55;9.07;;;7.85;;
62796;SDS011;48839;48.546;-4.178;2022-07-29T07:11:21;9.15;;;6.90;;
62796;SDS011;48839;48.546;-4.178;2022-07-29T07:13:47;10.60;;;5.90;;
62796;SDS011;48839;48.546;-4.178;2022-07-29T07:16:12;9.75;;;6.20;;
62796;SDS011;48839;48.546;-4.178;2022-07-29T07:18:38;6.45;;;5.60;;
62796;SDS011;48839;48.546;-4.178;2022-07-29T07:21:04;8.30;;;4.90;;
62796;SDS011;48839;48.546;-4.178;2022-07-29T07:23:30;8.25;;;5.30;;
62796;SDS011;48839;48.546;-4.178;2022-07-29T07:25:56;10.15;;;5.50;;
62796;SDS011;48839;48.546;-4.178;2022-07-29T07:28:21;6.80;;;5.60;;
62796;SDS011;48839;48.546;-4.178;2022-07-29T07:30:47;15.60;;;5.13;;
62796;SDS011;48839;48.546;-4.178;2022-07-29T07:33:13;7.00;;;4.50;;
62796;SDS011;48839;48.546;-4.178;2022-07-29T07:35:39;4.35;;;3.90;;
62796;SDS011;48839;48.546;-4.178;2022-07-29T07:38:05;7.53;;;4.35;;
62796;SDS011;48839;48.546;-4.178;2022-07-29T07:40:31;9.20;;;4.93;;
62796;SDS011;48839;48.546;-4.178;2022-07-29T07:42:57;7.07;;;4.18;;
62796;SDS011;48839;48.546;-4.178;2022-07-29T07:45:22;4.88;;;4.30;;
62796;SDS011;48839;48.546;-4.178;2022-07-29T07:47:48;6.25;;;4.30;;
62796;SDS011;48839;48.546;-4.178;2022-07-29T07:50:14;7.28;;;4.13;;
62796;SDS011;48839;48.546;-4.178;2022-07-29T07:52:48;6.30;;;3.83;;
62796;SDS011;48839;48.546;-4.178;2022-07-29T07:55:22;6.13;;;3.25;;
62796;SDS011;48839;48.546;-4.178;2022-07-29T07:57:48;6.47;;;4.38;;
62796;SDS011;48839;48.546;-4.178;2022-07-29T08:00:14;5.60;;;3.75;;
62796;SDS011;48839;48.546;-4.178;2022-07-29T08:02:41;10.80;;;3.88;;
62796;SDS011;48839;48.546;-4.178;2022-07-29T08:05:10;6.32;;;4.40;;
62796;SDS011;48839;48.546;-4.178;2022-07-29T08:07:38;6.47;;;4.50;;
62796;SDS011;48839;48.546;-4.178;2022-07-29T08:10:04;6.82;;;4.60;;
62796;SDS011;48839;48.546;-4.178;2022-07-29T08:12:30;3.80;;;2.60;;
62796;SDS011;48839;48.546;-4.178;2022-07-29T08:14:56;5.72;;;2.50;;
62796;SDS011;48839;48.546;-4.178;2022-07-29T08:17:22;3.55;;;2.30;;
62796;SDS011;48839;48.546;-4.178;2022-07-29T08:19:47;7.05;;;2.88;;
62796;SDS011;48839;48.546;-4.178;2022-07-29T08:22:13;6.10;;;2.80;;
62796;SDS011;48839;48.546;-4.178;2022-07-29T08:24:39;5.63;;;2.70;;
62796;SDS011;48839;48.546;-4.178;2022-07-29T08:27:07;6.40;;;2.65;;
62796;SDS011;48839;48.546;-4.178;2022-07-29T08:29:33;4.43;;;2.85;;
62796;SDS011;48839;48.546;-4.178;2022-07-29T08:31:59;3.70;;;2.38;;
62796;SDS011;48839;48.546;-4.178;2022-07-29T08:34:25;9.15;;;3.25;;
62796;SDS011;48839;48.546;-4.178;2022-07-29T08:36:50;2.28;;;1.75;;
62796;SDS011;48839;48.546;-4.178;2022-07-29T08:39:17;2.65;;;1.90;;
62796;SDS011;48839;48.546;-4.178;2022-07-29T08:41:42;5.97;;;2.13;;
62796;SDS011;48839;48.546;-4.178;2022-07-29T08:44:08;2.20;;;1.98;;
62796;SDS011;48839;48.546;-4.178;2022-07-29T08:46:37;4.00;;;2.53;;
62796;SDS011;48839;48.546;-4.178;2022-07-29T08:49:03;6.10;;;3.03;;
62796;SDS011;48839;48.546;-4.178;2022-07-29T08:51:29;2.58;;;2.35;;
62796;SDS011;48839;48.546;-4.178;2022-07-29T08:53:58;3.13;;;2.50;;
62796;SDS011;48839;48.546;-4.178;2022-07-29T08:56:24;5.45;;;2.10;;
62796;SDS011;48839;48.546;-4.178;2022-07-29T08:58:50;3.50;;;2.35;;
62796;SDS011;48839;48.546;-4.178;2022-07-29T09:01:17;4.47;;;2.13;;
62796;SDS011;48839;48.546;-4.178;2022-07-29T09:03:47;3.65;;;2.35;;
62796;SDS011;48839;48.546;-4.178;2022-07-29T09:06:14;6.15;;;2.15;;
62796;SDS011;48839;48.546;-4.178;2022-07-29T09:08:41;4.55;;;2.75;;
62796;SDS011;48839;48.546;-4.178;2022-07-29T09:11:07;4.00;;;2.33;;
62796;SDS011;48839;48.546;-4.178;2022-07-29T09:13:33;4.00;;;2.00;;
62796;SDS011;48839;48.546;-4.178;2022-07-29T09:16:00;6.70;;;2.80;;
62796;SDS011;48839;48.546;-4.178;2022-07-29T09:18:39;5.25;;;2.60;;
62796;SDS011;48839;48.546;-4.178;2022-07-29T09:21:06;3.35;;;2.42;;
62796;SDS011;48839;48.546;-4.178;2022-07-29T09:24:02;6.57;;;2.83;;
62796;SDS011;48839;48.546;-4.178;2022-07-29T09:26:32;4.35;;;2.50;;
62796;SDS011;48839;48.546;-4.178;2022-07-29T09:28:59;5.18;;;2.70;;
62796;SDS011;48839;48.546;-4.178;2022-07-29T09:31:34;5.70;;;3.00;;
62796;SDS011;48839;48.546;-4.178;2022-07-29T09:34:02;7.32;;;2.65;;
62796;SDS011;48839;48.546;-4.178;2022-07-29T09:36:29;5.28;;;3.17;;
62796;SDS011;48839;48.546;-4.178;2022-07-29T09:38:58;3.03;;;2.30;;
62796;SDS011;48839;48.546;-4.178;2022-07-29T09:41:25;3.90;;;2.25;;
62796;SDS011;48839;48.546;-4.178;2022-07-29T09:43:58;3.35;;;2.60;;
62796;SDS011;48839;48.546;-4.178;2022-07-29T09:46:26;3.03;;;1.90;;
62796;SDS011;48839;48.546;-4.178;2022-07-29T09:49:08;4.97;;;2.22;;
62796;SDS011;48839;48.546;-4.178;2022-07-29T09:51:36;3.47;;;1.70;;
62796;SDS011;48839;48.546;-4.178;2022-07-29T09:54:02;2.67;;;1.67;;
62796;SDS011;48839;48.546;-4.178;2022-07-29T09:56:48;2.47;;;2.25;;
62796;SDS011;48839;48.546;-4.178;2022-07-29T09:59:14;3.35;;;1.90;;
62796;SDS011;48839;48.546;-4.178;2022-07-29T10:01:40;4.32;;;2.20;;
62796;SDS011;48839;48.546;-4.178;2022-07-29T10:04:06;2.15;;;1.92;;
62796;SDS011;48839;48.546;-4.178;2022-07-29T10:06:31;2.40;;;1.52;;
62796;SDS011;48839;48.546;-4.178;2022-07-29T10:09:07;3.28;;;2.13;;
62796;SDS011;48839;48.546;-4.178;2022-07-29T10:11:34;2.53;;;2.33;;
62796;SDS011;48839;48.546;-4.178;2022-07-29T10:14:01;3.88;;;2.70;;
62796;SDS011;48839;48.546;-4.178;2022-07-29T10:16:27;3.25;;;2.30;;
62796;SDS011;48839;48.546;-4.178;2022-07-29T10:18:57;2.65;;;1.60;;
62796;SDS011;48839;48.546;-4.178;2022-07-29T10:21:24;4.35;;;2.40;;
62796;SDS011;48839;48.546;-4.178;2022-07-29T10:23:51;5.20;;;2.22;;
62796;SDS011;48839;48.546;-4.178;2022-07-29T10:26:17;5.35;;;3.08;;
62796;SDS011;48839;48.546;-4.178;2022-07-29T10:28:44;2.63;;;2.20;;
62796;SDS011;48839;48.546;-4.178;2022-07-29T10:31:14;5.63;;;2.63;;
62796;SDS011;48839;48.546;-4.178;2022-07-29T10:34:03;3.95;;;2.58;;
62796;SDS011;48839;48.546;-4.178;2022-07-29T10:39:27;4.72;;;2.70;;
62796;SDS011;48839;48.546;-4.178;2022-07-29T10:44:39;4.45;;;2.78;;
62796;SDS011;48839;48.546;-4.178;2022-07-29T10:47:06;3.95;;;2.72;;
62796;SDS011;48839;48.546;-4.178;2022-07-29T10:49:32;2.78;;;2.20;;
62796;SDS011;48839;48.546;-4.178;2022-07-29T10:52:09;2.95;;;1.70;;
62796;SDS011;48839;48.546;-4.178;2022-07-29T10:54:36;5.68;;;3.03;;
62796;SDS011;48839;48.546;-4.178;2022-07-29T10:57:15;3.92;;;2.80;;
62796;SDS011;48839;48.546;-4.178;2022-07-29T10:59:48;5.15;;;2.97;;
62796;SDS011;48839;48.546;-4.178;2022-07-29T11:07:29;4.03;;;2.20;;
62796;SDS011;48839;48.546;-4.178;2022-07-29T11:15:08;3.33;;;2.35;;
62796;SDS011;48839;48.546;-4.178;2022-07-29T11:23:41;3.10;;;2.13;;
62796;SDS011;48839;48.546;-4.178;2022-07-29T11:29:04;2.70;;;1.80;;
62796;SDS011;48839;48.546;-4.178;2022-07-29T11:31:39;3.33;;;2.00;;
62796;SDS011;48839;48.546;-4.178;2022-07-29T11:34:25;3.22;;;1.77;;
62796;SDS011;48839;48.546;-4.178;2022-07-29T11:39:38;3.30;;;2.03;;
62796;SDS011;48839;48.546;-4.178;2022-07-29T11:44:57;3.40;;;1.73;;
62796;SDS011;48839;48.546;-4.178;2022-07-29T11:47:25;2.70;;;1.08;;
62796;SDS011;48839;48.546;-4.178;2022-07-29T11:49:52;2.78;;;1.30;;
62796;SDS011;48839;48.546;-4.178;2022-07-29T11:52:20;2.40;;;1.20;;
62796;SDS011;48839;48.546;-4.178;2022-07-29T11:54:49;1.30;;;1.20;;
62796;SDS011;48839;48.546;-4.178;2022-07-29T11:57:16;2.40;;;1.00;;
62796;SDS011;48839;48.546;-4.178;2022-07-29T11:59:44;1.58;;;1.08;;
62796;SDS011;48839;48.546;-4.178;2022-07-29T12:02:11;1.45;;;1.00;;
62796;SDS011;48839;48.546;-4.178;2022-07-29T12:04:50;3.70;;;1.17;;
62796;SDS011;48839;48.546;-4.178;2022-07-29T12:07:16;3.78;;;1.08;;
62796;SDS011;48839;48.546;-4.178;2022-07-29T12:09:51;1.40;;;1.15;;
62796;SDS011;48839;48.546;-4.178;2022-07-29T12:12:18;3.00;;;1.27;;
62796;SDS011;48839;48.546;-4.178;2022-07-29T12:14:44;2.83;;;1.33;;
62796;SDS011;48839;48.546;-4.178;2022-07-29T12:17:29;2.97;;;1.27;;
62796;SDS011;48839;48.546;-4.178;2022-07-29T12:19:58;4.85;;;0.85;;
62796;SDS011;48839;48.546;-4.178;2022-07-29T12:22:26;2.38;;;1.10;;
62796;SDS011;48839;48.546;-4.178;2022-07-29T12:25:03;2.10;;;1.20;;
62796;SDS011;48839;48.546;-4.178;2022-07-29T12:27:31;3.53;;;1.05;;
62796;SDS011;48839;48.546;-4.178;2022-07-29T12:29:58;2.53;;;1.23;;
62796;SDS011;48839;48.546;-4.178;2022-07-29T12:32:32;3.63;;;1.20;;
62796;SDS011;48839;48.546;-4.178;2022-07-29T12:35:06;2.80;;;1.23;;
62796;SDS011;48839;48.546;-4.178;2022-07-29T12:37:34;2.47;;;1.15;;
62796;SDS011;48839;48.546;-4.178;2022-07-29T12:40:02;2.50;;;0.85;;
62796;SDS011;48839;48.546;-4.178;2022-07-29T12:42:29;1.10;;;0.80;;
62796;SDS011;48839;48.546;-4.178;2022-07-29T12:44:54;3.20;;;1.05;;
62796;SDS011;48839;48.546;-4.178;2022-07-29T12:47:22;2.83;;;0.90;;
62796;SDS011;48839;48.546;-4.178;2022-07-29T12:49:48;8.02;;;1.02;;
62796;SDS011;48839;48.546;-4.178;2022-07-29T12:52:31;3.75;;;0.90;;
62796;SDS011;48839;48.546;-4.178;2022-07-29T12:54:58;3.58;;;0.98;;
62796;SDS011;48839;48.546;-4.178;2022-07-29T12:57:25;2.90;;;1.00;;
62796;SDS011;48839;48.546;-4.178;2022-07-29T13:00:06;4.55;;;1.10;;
62796;SDS011;48839;48.546;-4.178;2022-07-29T13:02:35;4.60;;;1.45;;
62796;SDS011;48839;48.546;-4.178;2022-07-29T13:05:01;3.22;;;1.00;;
62796;SDS011;48839;48.546;-4.178;2022-07-29T13:07:29;3.10;;;0.98;;
62796;SDS011;48839;48.546;-4.178;2022-07-29T13:15:33;1.20;;;1.10;;
62796;SDS011;48839;48.546;-4.178;2022-07-29T13:17:59;3.85;;;0.80;;
62796;SDS011;48839;48.546;-4.178;2022-07-29T13:20:26;3.70;;;0.70;;
62796;SDS011;48839;48.546;-4.178;2022-07-29T13:22:54;1.95;;;0.70;;
62796;SDS011;48839;48.546;-4.178;2022-07-29T13:25:28;2.95;;;1.05;;
62796;SDS011;48839;48.546;-4.178;2022-07-29T13:27:57;5.65;;;1.05;;
62796;SDS011;48839;48.546;-4.178;2022-07-29T13:30:24;3.17;;;1.00;;
62796;SDS011;48839;48.546;-4.178;2022-07-29T13:32:50;2.25;;;0.90;;
62796;SDS011;48839;48.546;-4.178;2022-07-29T13:35:17;3.95;;;1.25;;
62796;SDS011;48839;48.546;-4.178;2022-07-29T13:37:44;1.70;;;0.88;;
62796;SDS011;48839;48.546;-4.178;2022-07-29T13:40:10;5.13;;;1.00;;
62796;SDS011;48839;48.546;-4.178;2022-07-29T13:42:37;2.15;;;0.95;;
62796;SDS011;48839;48.546;-4.178;2022-07-29T13:45:03;1.40;;;0.80;;
62796;SDS011;48839;48.546;-4.178;2022-07-29T13:47:29;2.35;;;0.93;;
62796;SDS011;48839;48.546;-4.178;2022-07-29T13:49:55;7.03;;;1.35;;
62796;SDS011;48839;48.546;-4.178;2022-07-29T13:52:21;4.45;;;1.02;;
62796;SDS011;48839;48.546;-4.178;2022-07-29T13:54:47;2.72;;;1.00;;
62796;SDS011;48839;48.546;-4.178;2022-07-29T13:57:12;3.40;;;1.00;;
62796;SDS011;48839;48.546;-4.178;2022-07-29T13:59:41;2.88;;;1.00;;
62796;SDS011;48839;48.546;-4.178;2022-07-29T14:02:08;1.98;;;0.88;;
62796;SDS011;48839;48.546;-4.178;2022-07-29T14:04:34;3.90;;;1.13;;
62796;SDS011;48839;48.546;-4.178;2022-07-29T14:07:00;2.63;;;1.00;;
62796;SDS011;48839;48.546;-4.178;2022-07-29T14:09:27;1.73;;;1.00;;
62796;SDS011;48839;48.546;-4.178;2022-07-29T14:11:52;2.47;;;0.90;;
62796;SDS011;48839;48.546;-4.178;2022-07-29T14:14:18;2.05;;;0.82;;
62796;SDS011;48839;48.546;-4.178;2022-07-29T14:16:45;3.00;;;1.20;;
62796;SDS011;48839;48.546;-4.178;2022-07-29T14:19:11;3.67;;;0.98;;
62796;SDS011;48839;48.546;-4.178;2022-07-29T14:21:37;4.30;;;1.20;;
62796;SDS011;48839;48.546;-4.178;2022-07-29T14:24:03;3.05;;;1.00;;
62796;SDS011;48839;48.546;-4.178;2022-07-29T14:26:29;2.30;;;0.93;;
62796;SDS011;48839;48.546;-4.178;2022-07-29T14:28:55;2.63;;;1.10;;
62796;SDS011;48839;48.546;-4.178;2022-07-29T14:31:20;6.00;;;1.67;;
62796;SDS011;48839;48.546;-4.178;2022-07-29T14:33:46;1.05;;;0.95;;
62796;SDS011;48839;48.546;-4.178;2022-07-29T14:36:12;1.98;;;1.17;;
62796;SDS011;48839;48.546;-4.178;2022-07-29T14:38:38;1.70;;;1.10;;
62796;SDS011;48839;48.546;-4.178;2022-07-29T14:41:05;3.30;;;1.20;;
62796;SDS011;48839;48.546;-4.178;2022-07-29T14:43:32;6.13;;;1.05;;
62796;SDS011;48839;48.546;-4.178;2022-07-29T14:45:59;2.90;;;1.42;;
62796;SDS011;48839;48.546;-4.178;2022-07-29T14:48:25;2.55;;;1.30;;
62796;SDS011;48839;48.546;-4.178;2022-07-29T14:50:51;2.90;;;1.42;;
62796;SDS011;48839;48.546;-4.178;2022-07-29T14:53:17;2.72;;;1.52;;
62796;SDS011;48839;48.546;-4.178;2022-07-29T14:55:43;1.67;;;1.00;;
62796;SDS011;48839;48.546;-4.178;2022-07-29T14:58:08;1.60;;;0.98;;
62796;SDS011;48839;48.546;-4.178;2022-07-29T15:00:34;4.85;;;1.30;;
62796;SDS011;48839;48.546;-4.178;2022-07-29T15:03:01;3.60;;;2.08;;
62796;SDS011;48839;48.546;-4.178;2022-07-29T15:05:28;4.00;;;1.55;;
62796;SDS011;48839;48.546;-4.178;2022-07-29T15:07:54;1.55;;;1.30;;
62796;SDS011;48839;48.546;-4.178;2022-07-29T15:10:20;3.10;;;1.00;;
62796;SDS011;48839;48.546;-4.178;2022-07-29T15:12:46;3.40;;;1.45;;
62796;SDS011;48839;48.546;-4.178;2022-07-29T15:15:11;7.57;;;1.63;;
62796;SDS011;48839;48.546;-4.178;2022-07-29T15:17:37;2.22;;;1.08;;
62796;SDS011;48839;48.546;-4.178;2022-07-29T15:20:03;3.85;;;1.10;;
62796;SDS011;48839;48.546;-4.178;2022-07-29T15:22:29;2.05;;;1.58;;
62796;SDS011;48839;48.546;-4.178;2022-07-29T15:24:55;4.93;;;1.75;;
62796;SDS011;48839;48.546;-4.178;2022-07-29T15:27:20;1.98;;;1.13;;
62796;SDS011;48839;48.546;-4.178;2022-07-29T15:29:46;1.85;;;1.20;;